sensor_id;sensor_type;location;lat;lon;timestamp;P1;durP1;ratioP1;P2;durP2;ratioP2
69246;SDS011;56358;56.328;43.992;2022-08-07T00:01:51;9.77;;;6.28;;
69246;SDS011;56358;56.328;43.992;2022-08-07T00:03:54;10.90;;;7.22;;
69246;SDS011;56358;56.328;43.992;2022-08-07T00:05:55;10.20;;;5.93;;
69246;SDS011;56358;56.328;43.992;2022-08-07T00:07:55;9.25;;;4.82;;
69246;SDS011;56358;56.328;43.992;2022-08-07T00:09:56;7.35;;;4.60;;
69246;SDS011;56358;56.328;43.992;2022-08-07T00:11:57;7.82;;;5.03;;
69246;SDS011;56358;56.328;43.992;2022-08-07T00:13:57;8.38;;;4.90;;
69246;SDS011;56358;56.328;43.992;2022-08-07T00:15:58;7.50;;;4.93;;
69246;SDS011;56358;56.328;43.992;2022-08-07T00:18:00;7.70;;;5.10;;
69246;SDS011;56358;56.328;43.992;2022-08-07T00:20:00;8.88;;;5.50;;
69246;SDS011;56358;56.328;43.992;2022-08-07T00:22:01;10.07;;;5.45;;
69246;SDS011;56358;56.328;43.992;2022-08-07T00:24:02;9.15;;;6.38;;
69246;SDS011;56358;56.328;43.992;2022-08-07T00:26:07;12.77;;;6.53;;
69246;SDS011;56358;56.328;43.992;2022-08-07T00:28:09;9.18;;;6.78;;
69246;SDS011;56358;56.328;43.992;2022-08-07T00:30:15;11.23;;;6.78;;
69246;SDS011;56358;56.328;43.992;2022-08-07T00:32:17;9.85;;;6.60;;
69246;SDS011;56358;56.328;43.992;2022-08-07T00:34:18;10.30;;;6.85;;
69246;SDS011;56358;56.328;43.992;2022-08-07T00:36:18;9.85;;;5.88;;
69246;SDS011;56358;56.328;43.992;2022-08-07T00:38:19;8.65;;;6.20;;
69246;SDS011;56358;56.328;43.992;2022-08-07T00:40:20;8.00;;;5.93;;
69246;SDS011;56358;56.328;43.992;2022-08-07T00:42:21;8.20;;;6.05;;
69246;SDS011;56358;56.328;43.992;2022-08-07T00:44:22;13.30;;;6.88;;
69246;SDS011;56358;56.328;43.992;2022-08-07T00:46:23;9.75;;;6.60;;
69246;SDS011;56358;56.328;43.992;2022-08-07T00:48:25;10.93;;;7.07;;
69246;SDS011;56358;56.328;43.992;2022-08-07T00:50:26;10.95;;;6.43;;
69246;SDS011;56358;56.328;43.992;2022-08-07T00:52:27;9.65;;;6.75;;
69246;SDS011;56358;56.328;43.992;2022-08-07T00:54:28;9.20;;;6.70;;
69246;SDS011;56358;56.328;43.992;2022-08-07T00:56:28;8.90;;;7.03;;
69246;SDS011;56358;56.328;43.992;2022-08-07T00:58:30;11.02;;;6.82;;
69246;SDS011;56358;56.328;43.992;2022-08-07T01:00:31;10.50;;;6.97;;
69246;SDS011;56358;56.328;43.992;2022-08-07T01:02:32;8.23;;;6.53;;
69246;SDS011;56358;56.328;43.992;2022-08-07T01:04:33;10.43;;;6.50;;
69246;SDS011;56358;56.328;43.992;2022-08-07T01:06:34;10.25;;;6.80;;
69246;SDS011;56358;56.328;43.992;2022-08-07T01:08:35;13.93;;;7.75;;
69246;SDS011;56358;56.328;43.992;2022-08-07T01:10:36;14.68;;;7.25;;
69246;SDS011;56358;56.328;43.992;2022-08-07T01:12:40;11.80;;;7.78;;
69246;SDS011;56358;56.328;43.992;2022-08-07T01:14:42;9.90;;;7.38;;
69246;SDS011;56358;56.328;43.992;2022-08-07T01:16:43;13.05;;;7.28;;
69246;SDS011;56358;56.328;43.992;2022-08-07T01:18:44;9.70;;;6.90;;
69246;SDS011;56358;56.328;43.992;2022-08-07T01:20:47;10.30;;;6.70;;
69246;SDS011;56358;56.328;43.992;2022-08-07T01:22:53;8.90;;;6.32;;
69246;SDS011;56358;56.328;43.992;2022-08-07T01:24:54;10.93;;;7.57;;
69246;SDS011;56358;56.328;43.992;2022-08-07T01:26:56;9.07;;;6.85;;
69246;SDS011;56358;56.328;43.992;2022-08-07T01:28:56;10.88;;;6.60;;
69246;SDS011;56358;56.328;43.992;2022-08-07T01:30:57;9.20;;;6.10;;
69246;SDS011;56358;56.328;43.992;2022-08-07T01:33:00;8.85;;;6.72;;
69246;SDS011;56358;56.328;43.992;2022-08-07T01:35:00;8.32;;;6.28;;
69246;SDS011;56358;56.328;43.992;2022-08-07T01:37:04;10.25;;;5.80;;
69246;SDS011;56358;56.328;43.992;2022-08-07T01:39:05;8.15;;;5.57;;
69246;SDS011;56358;56.328;43.992;2022-08-07T01:41:05;8.73;;;6.05;;
69246;SDS011;56358;56.328;43.992;2022-08-07T01:43:08;9.68;;;5.85;;
69246;SDS011;56358;56.328;43.992;2022-08-07T01:45:09;7.38;;;5.75;;
69246;SDS011;56358;56.328;43.992;2022-08-07T01:47:10;7.45;;;6.05;;
69246;SDS011;56358;56.328;43.992;2022-08-07T01:49:11;8.32;;;5.60;;
69246;SDS011;56358;56.328;43.992;2022-08-07T01:51:13;6.93;;;5.60;;
69246;SDS011;56358;56.328;43.992;2022-08-07T01:53:18;7.43;;;5.40;;
69246;SDS011;56358;56.328;43.992;2022-08-07T01:57:26;9.27;;;5.93;;
69246;SDS011;56358;56.328;43.992;2022-08-07T02:00:12;8.10;;;7.20;;
69246;SDS011;56358;56.328;43.992;2022-08-07T02:02:12;11.70;;;7.18;;
69246;SDS011;56358;56.328;43.992;2022-08-07T02:04:25;13.25;;;8.32;;
69246;SDS011;56358;56.328;43.992;2022-08-07T02:06:30;11.77;;;7.65;;
69246;SDS011;56358;56.328;43.992;2022-08-07T02:08:33;7.78;;;6.45;;
69246;SDS011;56358;56.328;43.992;2022-08-07T02:10:39;10.98;;;7.00;;
69246;SDS011;56358;56.328;43.992;2022-08-07T02:13:02;10.15;;;6.63;;
69246;SDS011;56358;56.328;43.992;2022-08-07T02:15:04;13.85;;;6.47;;
69246;SDS011;56358;56.328;43.992;2022-08-07T02:17:08;8.55;;;6.43;;
69246;SDS011;56358;56.328;43.992;2022-08-07T02:19:14;10.82;;;5.95;;
69246;SDS011;56358;56.328;43.992;2022-08-07T02:21:17;9.52;;;6.22;;
69246;SDS011;56358;56.328;43.992;2022-08-07T02:23:19;7.93;;;5.82;;
69246;SDS011;56358;56.328;43.992;2022-08-07T02:25:22;10.38;;;6.43;;
69246;SDS011;56358;56.328;43.992;2022-08-07T02:27:25;9.30;;;5.57;;
69246;SDS011;56358;56.328;43.992;2022-08-07T02:31:29;9.70;;;6.22;;
69246;SDS011;56358;56.328;43.992;2022-08-07T02:33:32;11.00;;;6.75;;
69246;SDS011;56358;56.328;43.992;2022-08-07T02:35:33;10.65;;;6.47;;
69246;SDS011;56358;56.328;43.992;2022-08-07T02:37:36;12.40;;;6.47;;
69246;SDS011;56358;56.328;43.992;2022-08-07T02:39:41;9.80;;;6.65;;
69246;SDS011;56358;56.328;43.992;2022-08-07T02:41:44;10.02;;;6.32;;
69246;SDS011;56358;56.328;43.992;2022-08-07T02:43:45;9.98;;;6.70;;
69246;SDS011;56358;56.328;43.992;2022-08-07T02:45:48;11.70;;;6.88;;
69246;SDS011;56358;56.328;43.992;2022-08-07T02:47:52;8.63;;;6.32;;
69246;SDS011;56358;56.328;43.992;2022-08-07T02:49:53;12.75;;;6.55;;
69246;SDS011;56358;56.328;43.992;2022-08-07T02:53:59;9.82;;;7.20;;
69246;SDS011;56358;56.328;43.992;2022-08-07T02:56:01;8.55;;;6.47;;
69246;SDS011;56358;56.328;43.992;2022-08-07T02:58:06;7.25;;;6.28;;
69246;SDS011;56358;56.328;43.992;2022-08-07T03:00:14;8.70;;;6.05;;
69246;SDS011;56358;56.328;43.992;2022-08-07T03:02:15;9.70;;;6.25;;
69246;SDS011;56358;56.328;43.992;2022-08-07T03:04:17;10.07;;;6.90;;
69246;SDS011;56358;56.328;43.992;2022-08-07T03:06:19;9.15;;;6.53;;
69246;SDS011;56358;56.328;43.992;2022-08-07T03:08:25;8.68;;;6.65;;
69246;SDS011;56358;56.328;43.992;2022-08-07T03:10:26;10.07;;;4.75;;
69246;SDS011;56358;56.328;43.992;2022-08-07T03:12:27;8.82;;;5.82;;
69246;SDS011;56358;56.328;43.992;2022-08-07T03:14:29;9.52;;;5.30;;
69246;SDS011;56358;56.328;43.992;2022-08-07T03:16:32;10.00;;;5.70;;
69246;SDS011;56358;56.328;43.992;2022-08-07T03:18:34;8.55;;;5.40;;
69246;SDS011;56358;56.328;43.992;2022-08-07T03:20:35;8.52;;;5.63;;
69246;SDS011;56358;56.328;43.992;2022-08-07T03:22:39;11.93;;;5.50;;
69246;SDS011;56358;56.328;43.992;2022-08-07T03:24:41;9.00;;;5.40;;
69246;SDS011;56358;56.328;43.992;2022-08-07T03:26:42;8.63;;;5.32;;
69246;SDS011;56358;56.328;43.992;2022-08-07T03:28:45;12.18;;;5.95;;
69246;SDS011;56358;56.328;43.992;2022-08-07T03:30:47;8.82;;;5.90;;
69246;SDS011;56358;56.328;43.992;2022-08-07T03:33:10;9.00;;;5.72;;
69246;SDS011;56358;56.328;43.992;2022-08-07T03:35:12;8.82;;;5.45;;
69246;SDS011;56358;56.328;43.992;2022-08-07T03:37:17;7.72;;;5.82;;
69246;SDS011;56358;56.328;43.992;2022-08-07T03:39:21;11.02;;;6.10;;
69246;SDS011;56358;56.328;43.992;2022-08-07T03:43:25;8.48;;;5.20;;
69246;SDS011;56358;56.328;43.992;2022-08-07T03:45:27;9.90;;;5.13;;
69246;SDS011;56358;56.328;43.992;2022-08-07T03:47:28;8.50;;;4.80;;
69246;SDS011;56358;56.328;43.992;2022-08-07T03:49:30;10.63;;;4.90;;
69246;SDS011;56358;56.328;43.992;2022-08-07T03:51:31;7.47;;;4.88;;
69246;SDS011;56358;56.328;43.992;2022-08-07T03:53:33;9.25;;;4.90;;
69246;SDS011;56358;56.328;43.992;2022-08-07T03:55:36;7.40;;;5.18;;
69246;SDS011;56358;56.328;43.992;2022-08-07T03:57:37;10.80;;;5.10;;
69246;SDS011;56358;56.328;43.992;2022-08-07T03:59:39;9.18;;;5.07;;
69246;SDS011;56358;56.328;43.992;2022-08-07T04:01:43;7.88;;;4.68;;
69246;SDS011;56358;56.328;43.992;2022-08-07T04:03:45;7.40;;;4.80;;
69246;SDS011;56358;56.328;43.992;2022-08-07T04:05:46;11.13;;;5.63;;
69246;SDS011;56358;56.328;43.992;2022-08-07T04:07:47;8.18;;;5.35;;
69246;SDS011;56358;56.328;43.992;2022-08-07T04:09:49;8.20;;;5.50;;
69246;SDS011;56358;56.328;43.992;2022-08-07T04:11:50;11.27;;;5.25;;
69246;SDS011;56358;56.328;43.992;2022-08-07T04:13:52;6.88;;;4.90;;
69246;SDS011;56358;56.328;43.992;2022-08-07T04:15:54;8.25;;;4.88;;
69246;SDS011;56358;56.328;43.992;2022-08-07T04:17:55;10.68;;;5.40;;
69246;SDS011;56358;56.328;43.992;2022-08-07T04:19:56;7.63;;;4.70;;
69246;SDS011;56358;56.328;43.992;2022-08-07T04:21:56;7.97;;;4.70;;
69246;SDS011;56358;56.328;43.992;2022-08-07T04:23:58;11.00;;;5.07;;
69246;SDS011;56358;56.328;43.992;2022-08-07T04:26:00;9.63;;;4.88;;
69246;SDS011;56358;56.328;43.992;2022-08-07T04:28:01;10.18;;;5.40;;
69246;SDS011;56358;56.328;43.992;2022-08-07T04:30:02;11.60;;;4.93;;
69246;SDS011;56358;56.328;43.992;2022-08-07T04:32:04;8.25;;;5.18;;
69246;SDS011;56358;56.328;43.992;2022-08-07T04:36:08;7.43;;;4.90;;
69246;SDS011;56358;56.328;43.992;2022-08-07T04:38:09;6.03;;;5.13;;
69246;SDS011;56358;56.328;43.992;2022-08-07T04:40:10;13.77;;;6.30;;
69246;SDS011;56358;56.328;43.992;2022-08-07T04:42:11;8.35;;;5.43;;
69246;SDS011;56358;56.328;43.992;2022-08-07T04:44:12;8.93;;;6.03;;
69246;SDS011;56358;56.328;43.992;2022-08-07T04:46:19;10.32;;;5.97;;
69246;SDS011;56358;56.328;43.992;2022-08-07T04:51:33;10.82;;;6.85;;
69246;SDS011;56358;56.328;43.992;2022-08-07T04:53:51;7.22;;;5.80;;
69246;SDS011;56358;56.328;43.992;2022-08-07T04:56:02;8.07;;;5.57;;
69246;SDS011;56358;56.328;43.992;2022-08-07T04:58:25;8.00;;;5.80;;
69246;SDS011;56358;56.328;43.992;2022-08-07T05:03:51;8.63;;;6.90;;
69246;SDS011;56358;56.328;43.992;2022-08-07T05:06:04;14.23;;;7.10;;
69246;SDS011;56358;56.328;43.992;2022-08-07T05:08:23;10.60;;;6.38;;
69246;SDS011;56358;56.328;43.992;2022-08-07T05:10:49;9.48;;;6.30;;
69246;SDS011;56358;56.328;43.992;2022-08-07T05:13:07;10.43;;;6.38;;
69246;SDS011;56358;56.328;43.992;2022-08-07T05:15:19;11.18;;;6.47;;
69246;SDS011;56358;56.328;43.992;2022-08-07T05:17:24;13.23;;;7.90;;
69246;SDS011;56358;56.328;43.992;2022-08-07T05:19:30;9.63;;;7.70;;
69246;SDS011;56358;56.328;43.992;2022-08-07T05:21:37;9.48;;;6.72;;
69246;SDS011;56358;56.328;43.992;2022-08-07T05:23:45;14.40;;;6.97;;
69246;SDS011;56358;56.328;43.992;2022-08-07T05:25:49;9.00;;;6.68;;
69246;SDS011;56358;56.328;43.992;2022-08-07T05:27:51;9.88;;;6.38;;
69246;SDS011;56358;56.328;43.992;2022-08-07T05:29:53;8.88;;;6.03;;
69246;SDS011;56358;56.328;43.992;2022-08-07T05:31:55;9.52;;;5.80;;
69246;SDS011;56358;56.328;43.992;2022-08-07T05:33:59;10.70;;;6.00;;
69246;SDS011;56358;56.328;43.992;2022-08-07T05:38:04;8.88;;;5.03;;
69246;SDS011;56358;56.328;43.992;2022-08-07T05:40:06;18.00;;;6.63;;
69246;SDS011;56358;56.328;43.992;2022-08-07T05:42:08;27.05;;;8.57;;
69246;SDS011;56358;56.328;43.992;2022-08-07T05:44:09;20.17;;;8.88;;
69246;SDS011;56358;56.328;43.992;2022-08-07T05:46:12;19.95;;;7.90;;
69246;SDS011;56358;56.328;43.992;2022-08-07T05:48:17;14.43;;;7.22;;
69246;SDS011;56358;56.328;43.992;2022-08-07T05:50:20;11.75;;;6.60;;
69246;SDS011;56358;56.328;43.992;2022-08-07T05:52:21;14.07;;;6.43;;
69246;SDS011;56358;56.328;43.992;2022-08-07T05:54:22;10.95;;;6.40;;
69246;SDS011;56358;56.328;43.992;2022-08-07T05:56:23;11.13;;;6.55;;
69246;SDS011;56358;56.328;43.992;2022-08-07T05:58:25;10.32;;;6.35;;
69246;SDS011;56358;56.328;43.992;2022-08-07T06:00:28;9.75;;;7.18;;
69246;SDS011;56358;56.328;43.992;2022-08-07T06:02:32;9.57;;;6.20;;
69246;SDS011;56358;56.328;43.992;2022-08-07T06:04:36;11.07;;;6.35;;
69246;SDS011;56358;56.328;43.992;2022-08-07T06:06:44;12.10;;;8.18;;
69246;SDS011;56358;56.328;43.992;2022-08-07T06:08:46;10.48;;;7.68;;
69246;SDS011;56358;56.328;43.992;2022-08-07T06:10:48;13.00;;;7.70;;
69246;SDS011;56358;56.328;43.992;2022-08-07T06:12:49;15.20;;;7.60;;
69246;SDS011;56358;56.328;43.992;2022-08-07T06:14:50;9.25;;;6.78;;
69246;SDS011;56358;56.328;43.992;2022-08-07T06:16:51;9.55;;;7.05;;
69246;SDS011;56358;56.328;43.992;2022-08-07T06:18:53;10.60;;;7.00;;
69246;SDS011;56358;56.328;43.992;2022-08-07T06:20:57;10.98;;;6.90;;
69246;SDS011;56358;56.328;43.992;2022-08-07T06:23:02;11.55;;;6.88;;
69246;SDS011;56358;56.328;43.992;2022-08-07T06:25:06;12.52;;;6.30;;
69246;SDS011;56358;56.328;43.992;2022-08-07T06:27:07;8.63;;;6.88;;
69246;SDS011;56358;56.328;43.992;2022-08-07T06:29:08;14.32;;;7.53;;
69246;SDS011;56358;56.328;43.992;2022-08-07T06:31:08;12.32;;;6.82;;
69246;SDS011;56358;56.328;43.992;2022-08-07T06:33:09;8.70;;;6.57;;
69246;SDS011;56358;56.328;43.992;2022-08-07T06:35:10;11.95;;;5.82;;
69246;SDS011;56358;56.328;43.992;2022-08-07T06:37:10;9.55;;;6.30;;
69246;SDS011;56358;56.328;43.992;2022-08-07T06:39:11;9.95;;;6.22;;
69246;SDS011;56358;56.328;43.992;2022-08-07T06:41:14;11.30;;;6.25;;
69246;SDS011;56358;56.328;43.992;2022-08-07T06:43:20;10.90;;;5.88;;
69246;SDS011;56358;56.328;43.992;2022-08-07T06:45:22;10.43;;;6.40;;
69246;SDS011;56358;56.328;43.992;2022-08-07T06:47:24;9.23;;;5.80;;
69246;SDS011;56358;56.328;43.992;2022-08-07T06:49:25;8.32;;;5.90;;
69246;SDS011;56358;56.328;43.992;2022-08-07T06:51:26;7.47;;;5.88;;
69246;SDS011;56358;56.328;43.992;2022-08-07T06:53:33;7.13;;;5.35;;
69246;SDS011;56358;56.328;43.992;2022-08-07T06:55:38;8.85;;;5.85;;
69246;SDS011;56358;56.328;43.992;2022-08-07T06:57:40;8.57;;;5.97;;
69246;SDS011;56358;56.328;43.992;2022-08-07T06:59:43;12.48;;;7.57;;
69246;SDS011;56358;56.328;43.992;2022-08-07T07:01:45;13.45;;;7.22;;
69246;SDS011;56358;56.328;43.992;2022-08-07T07:03:47;13.57;;;6.97;;
69246;SDS011;56358;56.328;43.992;2022-08-07T07:05:48;18.00;;;7.65;;
69246;SDS011;56358;56.328;43.992;2022-08-07T07:07:49;28.27;;;9.05;;
69246;SDS011;56358;56.328;43.992;2022-08-07T07:09:50;15.30;;;5.57;;
69246;SDS011;56358;56.328;43.992;2022-08-07T07:14:03;5.95;;;3.80;;
69246;SDS011;56358;56.328;43.992;2022-08-07T07:16:07;6.68;;;3.28;;
69246;SDS011;56358;56.328;43.992;2022-08-07T07:18:24;7.68;;;3.92;;
69246;SDS011;56358;56.328;43.992;2022-08-07T07:20:35;7.47;;;3.80;;
69246;SDS011;56358;56.328;43.992;2022-08-07T07:22:38;6.13;;;4.10;;
69246;SDS011;56358;56.328;43.992;2022-08-07T07:24:40;8.85;;;4.72;;
69246;SDS011;56358;56.328;43.992;2022-08-07T07:26:42;9.02;;;4.82;;
69246;SDS011;56358;56.328;43.992;2022-08-07T07:30:56;8.38;;;4.00;;
69246;SDS011;56358;56.328;43.992;2022-08-07T07:33:01;7.30;;;3.65;;
69246;SDS011;56358;56.328;43.992;2022-08-07T07:35:03;5.05;;;3.75;;
69246;SDS011;56358;56.328;43.992;2022-08-07T07:37:05;7.00;;;3.80;;
69246;SDS011;56358;56.328;43.992;2022-08-07T07:39:08;5.55;;;3.67;;
69246;SDS011;56358;56.328;43.992;2022-08-07T07:41:10;9.07;;;4.00;;
69246;SDS011;56358;56.328;43.992;2022-08-07T07:43:13;6.68;;;3.67;;
69246;SDS011;56358;56.328;43.992;2022-08-07T07:45:15;11.43;;;4.30;;
69246;SDS011;56358;56.328;43.992;2022-08-07T07:47:18;5.82;;;3.92;;
69246;SDS011;56358;56.328;43.992;2022-08-07T07:49:20;4.83;;;3.57;;
69246;SDS011;56358;56.328;43.992;2022-08-07T07:51:24;4.82;;;3.60;;
69246;SDS011;56358;56.328;43.992;2022-08-07T07:53:26;7.25;;;3.75;;
69246;SDS011;56358;56.328;43.992;2022-08-07T07:55:29;7.35;;;3.72;;
69246;SDS011;56358;56.328;43.992;2022-08-07T07:57:31;4.47;;;3.80;;
69246;SDS011;56358;56.328;43.992;2022-08-07T07:59:35;6.72;;;3.28;;
69246;SDS011;56358;56.328;43.992;2022-08-07T08:01:39;3.92;;;3.40;;
69246;SDS011;56358;56.328;43.992;2022-08-07T08:03:45;5.78;;;3.83;;
69246;SDS011;56358;56.328;43.992;2022-08-07T08:05:46;7.30;;;3.53;;
69246;SDS011;56358;56.328;43.992;2022-08-07T08:07:48;6.18;;;3.47;;
69246;SDS011;56358;56.328;43.992;2022-08-07T08:09:51;6.38;;;3.67;;
69246;SDS011;56358;56.328;43.992;2022-08-07T08:11:53;7.28;;;3.70;;
69246;SDS011;56358;56.328;43.992;2022-08-07T08:13:55;6.40;;;3.10;;
69246;SDS011;56358;56.328;43.992;2022-08-07T08:15:57;6.88;;;3.30;;
69246;SDS011;56358;56.328;43.992;2022-08-07T08:18:02;8.00;;;3.55;;
69246;SDS011;56358;56.328;43.992;2022-08-07T08:20:06;4.72;;;3.50;;
69246;SDS011;56358;56.328;43.992;2022-08-07T08:22:09;6.35;;;3.42;;
69246;SDS011;56358;56.328;43.992;2022-08-07T08:24:31;4.75;;;3.30;;
69246;SDS011;56358;56.328;43.992;2022-08-07T08:26:57;9.00;;;3.58;;
69246;SDS011;56358;56.328;43.992;2022-08-07T08:29:11;5.88;;;3.65;;
69246;SDS011;56358;56.328;43.992;2022-08-07T08:31:18;6.25;;;3.60;;
69246;SDS011;56358;56.328;43.992;2022-08-07T08:33:23;8.68;;;3.70;;
69246;SDS011;56358;56.328;43.992;2022-08-07T08:35:26;7.57;;;3.63;;
69246;SDS011;56358;56.328;43.992;2022-08-07T08:37:29;9.00;;;4.40;;
69246;SDS011;56358;56.328;43.992;2022-08-07T08:39:31;9.82;;;3.72;;
69246;SDS011;56358;56.328;43.992;2022-08-07T08:41:50;5.70;;;3.60;;
69246;SDS011;56358;56.328;43.992;2022-08-07T08:44:01;8.00;;;3.85;;
69246;SDS011;56358;56.328;43.992;2022-08-07T08:46:08;4.13;;;3.30;;
69246;SDS011;56358;56.328;43.992;2022-08-07T08:55:50;7.05;;;3.38;;
69246;SDS011;56358;56.328;43.992;2022-08-07T08:58:31;6.20;;;3.20;;
69246;SDS011;56358;56.328;43.992;2022-08-07T09:00:44;5.90;;;3.70;;
69246;SDS011;56358;56.328;43.992;2022-08-07T09:02:59;5.13;;;3.45;;
69246;SDS011;56358;56.328;43.992;2022-08-07T09:05:11;4.43;;;3.33;;
69246;SDS011;56358;56.328;43.992;2022-08-07T09:09:50;4.45;;;3.00;;
69246;SDS011;56358;56.328;43.992;2022-08-07T09:14:37;6.90;;;3.42;;
69246;SDS011;56358;56.328;43.992;2022-08-07T09:21:23;7.70;;;3.30;;
69246;SDS011;56358;56.328;43.992;2022-08-07T09:23:54;5.93;;;3.22;;
69246;SDS011;56358;56.328;43.992;2022-08-07T09:28:07;6.18;;;3.20;;
69246;SDS011;56358;56.328;43.992;2022-08-07T09:30:12;5.90;;;3.08;;
69246;SDS011;56358;56.328;43.992;2022-08-07T09:32:30;5.63;;;3.42;;
69246;SDS011;56358;56.328;43.992;2022-08-07T09:34:52;6.53;;;3.33;;
69246;SDS011;56358;56.328;43.992;2022-08-07T09:37:13;5.35;;;3.40;;
69246;SDS011;56358;56.328;43.992;2022-08-07T09:53:36;5.28;;;3.05;;
69246;SDS011;56358;56.328;43.992;2022-08-07T09:57:54;6.68;;;3.30;;
69246;SDS011;56358;56.328;43.992;2022-08-07T10:00:10;6.63;;;3.33;;
69246;SDS011;56358;56.328;43.992;2022-08-07T10:04:56;7.07;;;3.47;;
69246;SDS011;56358;56.328;43.992;2022-08-07T10:07:23;5.13;;;3.30;;
69246;SDS011;56358;56.328;43.992;2022-08-07T10:09:45;5.72;;;2.85;;
69246;SDS011;56358;56.328;43.992;2022-08-07T10:28:36;5.95;;;3.13;;
69246;SDS011;56358;56.328;43.992;2022-08-07T10:38:10;4.47;;;3.10;;
69246;SDS011;56358;56.328;43.992;2022-08-07T10:42:31;3.65;;;3.08;;
69246;SDS011;56358;56.328;43.992;2022-08-07T10:44:39;5.80;;;3.05;;
69246;SDS011;56358;56.328;43.992;2022-08-07T10:49:09;8.20;;;3.20;;
69246;SDS011;56358;56.328;43.992;2022-08-07T10:51:27;3.85;;;3.05;;
69246;SDS011;56358;56.328;43.992;2022-08-07T10:53:46;6.68;;;3.25;;
69246;SDS011;56358;56.328;43.992;2022-08-07T10:56:02;5.13;;;3.30;;
69246;SDS011;56358;56.328;43.992;2022-08-07T11:00:33;6.65;;;3.55;;
69246;SDS011;56358;56.328;43.992;2022-08-07T11:02:59;4.90;;;3.10;;
69246;SDS011;56358;56.328;43.992;2022-08-07T11:09:53;4.10;;;2.95;;
69246;SDS011;56358;56.328;43.992;2022-08-07T11:12:00;5.70;;;3.55;;
69246;SDS011;56358;56.328;43.992;2022-08-07T11:14:06;6.22;;;3.47;;
69246;SDS011;56358;56.328;43.992;2022-08-07T11:16:16;4.93;;;3.35;;
69246;SDS011;56358;56.328;43.992;2022-08-07T11:18:30;6.78;;;3.45;;
69246;SDS011;56358;56.328;43.992;2022-08-07T11:20:47;6.20;;;3.10;;
69246;SDS011;56358;56.328;43.992;2022-08-07T11:27:19;6.80;;;3.50;;
69246;SDS011;56358;56.328;43.992;2022-08-07T11:34:13;5.95;;;3.00;;
69246;SDS011;56358;56.328;43.992;2022-08-07T11:36:56;5.93;;;3.10;;
69246;SDS011;56358;56.328;43.992;2022-08-07T11:38:52;6.32;;;3.25;;
69246;SDS011;56358;56.328;43.992;2022-08-07T11:41:10;4.25;;;2.85;;
69246;SDS011;56358;56.328;43.992;2022-08-07T11:43:16;7.93;;;3.55;;
69246;SDS011;56358;56.328;43.992;2022-08-07T11:45:29;4.65;;;3.08;;
69246;SDS011;56358;56.328;43.992;2022-08-07T11:52:53;4.50;;;2.88;;
69246;SDS011;56358;56.328;43.992;2022-08-07T11:57:36;6.28;;;3.05;;
69246;SDS011;56358;56.328;43.992;2022-08-07T12:00:03;4.70;;;2.80;;
69246;SDS011;56358;56.328;43.992;2022-08-07T12:04:33;4.75;;;2.75;;
69246;SDS011;56358;56.328;43.992;2022-08-07T12:06:52;5.47;;;3.10;;
69246;SDS011;56358;56.328;43.992;2022-08-07T12:11:08;4.22;;;2.63;;
69246;SDS011;56358;56.328;43.992;2022-08-07T12:13:15;6.13;;;3.08;;
69246;SDS011;56358;56.328;43.992;2022-08-07T12:15:32;7.97;;;3.10;;
69246;SDS011;56358;56.328;43.992;2022-08-07T12:17:39;4.20;;;3.08;;
69246;SDS011;56358;56.328;43.992;2022-08-07T12:28:30;6.07;;;3.05;;
69246;SDS011;56358;56.328;43.992;2022-08-07T12:30:43;4.53;;;2.95;;
69246;SDS011;56358;56.328;43.992;2022-08-07T12:32:53;6.10;;;3.05;;
69246;SDS011;56358;56.328;43.992;2022-08-07T12:35:01;3.63;;;2.97;;
69246;SDS011;56358;56.328;43.992;2022-08-07T12:37:04;4.13;;;3.00;;
69246;SDS011;56358;56.328;43.992;2022-08-07T12:39:07;4.97;;;3.00;;
69246;SDS011;56358;56.328;43.992;2022-08-07T12:41:10;9.00;;;3.40;;
69246;SDS011;56358;56.328;43.992;2022-08-07T12:43:13;5.60;;;3.20;;
69246;SDS011;56358;56.328;43.992;2022-08-07T12:45:21;4.80;;;3.10;;
69246;SDS011;56358;56.328;43.992;2022-08-07T12:51:42;6.28;;;3.30;;
69246;SDS011;56358;56.328;43.992;2022-08-07T12:53:51;5.07;;;3.00;;
69246;SDS011;56358;56.328;43.992;2022-08-07T12:56:13;5.10;;;2.97;;
69246;SDS011;56358;56.328;43.992;2022-08-07T12:58:32;4.65;;;3.00;;
69246;SDS011;56358;56.328;43.992;2022-08-07T13:21:17;7.97;;;3.20;;
69246;SDS011;56358;56.328;43.992;2022-08-07T13:25:44;4.07;;;3.50;;
69246;SDS011;56358;56.328;43.992;2022-08-07T13:32:13;6.10;;;3.22;;
69246;SDS011;56358;56.328;43.992;2022-08-07T13:34:22;4.82;;;3.08;;
69246;SDS011;56358;56.328;43.992;2022-08-07T13:36:46;5.22;;;3.30;;
69246;SDS011;56358;56.328;43.992;2022-08-07T13:39:00;6.85;;;3.13;;
69246;SDS011;56358;56.328;43.992;2022-08-07T13:43:43;5.28;;;2.80;;
69246;SDS011;56358;56.328;43.992;2022-08-07T13:45:46;4.95;;;3.22;;
69246;SDS011;56358;56.328;43.992;2022-08-07T13:47:54;7.05;;;3.50;;
69246;SDS011;56358;56.328;43.992;2022-08-07T13:49:58;5.20;;;3.40;;
69246;SDS011;56358;56.328;43.992;2022-08-07T13:52:04;4.40;;;3.17;;
69246;SDS011;56358;56.328;43.992;2022-08-07T13:54:08;5.90;;;3.80;;
69246;SDS011;56358;56.328;43.992;2022-08-07T13:56:11;4.50;;;3.25;;
69246;SDS011;56358;56.328;43.992;2022-08-07T13:58:18;5.88;;;3.45;;
69246;SDS011;56358;56.328;43.992;2022-08-07T14:00:38;5.40;;;3.05;;
69246;SDS011;56358;56.328;43.992;2022-08-07T14:02:40;3.55;;;2.78;;
69246;SDS011;56358;56.328;43.992;2022-08-07T14:04:50;6.43;;;3.60;;
69246;SDS011;56358;56.328;43.992;2022-08-07T14:06:53;5.40;;;3.42;;
69246;SDS011;56358;56.328;43.992;2022-08-07T14:08:55;4.47;;;3.15;;
69246;SDS011;56358;56.328;43.992;2022-08-07T14:10:57;5.37;;;3.63;;
69246;SDS011;56358;56.328;43.992;2022-08-07T14:13:00;5.63;;;3.05;;
69246;SDS011;56358;56.328;43.992;2022-08-07T14:15:03;5.18;;;3.03;;
69246;SDS011;56358;56.328;43.992;2022-08-07T14:17:06;6.90;;;3.55;;
69246;SDS011;56358;56.328;43.992;2022-08-07T14:19:34;5.45;;;3.10;;
69246;SDS011;56358;56.328;43.992;2022-08-07T14:21:41;4.50;;;3.50;;
69246;SDS011;56358;56.328;43.992;2022-08-07T14:23:53;6.95;;;3.60;;
69246;SDS011;56358;56.328;43.992;2022-08-07T14:25:58;5.82;;;3.20;;
69246;SDS011;56358;56.328;43.992;2022-08-07T14:28:05;5.85;;;3.25;;
69246;SDS011;56358;56.328;43.992;2022-08-07T14:30:11;5.93;;;2.88;;
69246;SDS011;56358;56.328;43.992;2022-08-07T14:32:13;5.47;;;3.20;;
69246;SDS011;56358;56.328;43.992;2022-08-07T14:34:18;5.28;;;3.10;;
69246;SDS011;56358;56.328;43.992;2022-08-07T14:36:23;4.88;;;3.30;;
69246;SDS011;56358;56.328;43.992;2022-08-07T14:38:27;6.72;;;3.22;;
69246;SDS011;56358;56.328;43.992;2022-08-07T14:40:30;5.70;;;3.17;;
69246;SDS011;56358;56.328;43.992;2022-08-07T14:42:32;4.35;;;3.33;;
69246;SDS011;56358;56.328;43.992;2022-08-07T14:44:37;9.55;;;3.95;;
69246;SDS011;56358;56.328;43.992;2022-08-07T14:46:42;56.30;;;11.98;;
69246;SDS011;56358;56.328;43.992;2022-08-07T14:48:44;8.38;;;4.00;;
69246;SDS011;56358;56.328;43.992;2022-08-07T14:50:51;10.90;;;4.00;;
69246;SDS011;56358;56.328;43.992;2022-08-07T14:52:54;7.35;;;3.72;;
69246;SDS011;56358;56.328;43.992;2022-08-07T14:54:56;5.63;;;3.38;;
69246;SDS011;56358;56.328;43.992;2022-08-07T14:56:59;8.95;;;3.80;;
69246;SDS011;56358;56.328;43.992;2022-08-07T14:59:03;8.45;;;3.60;;
69246;SDS011;56358;56.328;43.992;2022-08-07T15:01:08;7.43;;;3.50;;
69246;SDS011;56358;56.328;43.992;2022-08-07T15:03:11;5.35;;;3.78;;
69246;SDS011;56358;56.328;43.992;2022-08-07T15:05:15;4.35;;;3.55;;